Time;durP1;ratioP1;P1;durP2;ratioP2;P2;SDS_P1;SDS_P2;PMS_P1;PMS_P2;Temp;Humidity;BMP_temperature;BMP_pressure;BME280_temperature;BME280_humidity;BME280_pressure;Samples;Min_cycle;Max_cycle;Signal;HPM_P1;HPM_P2
2023/12/21 00:02:01;;;;;;;6.90;4.10;;;;;;;5.45;100.00;97539.75;5048101;28;20672;-57
2023/12/21 00:04:27;;;;;;;6.60;4.97;;;;;;;4.96;100.00;97468.53;5053928;28;20174;-57
2023/12/21 00:06:52;;;;;;;9.48;6.45;;;;;;;4.87;100.00;97446.84;5054166;28;20181;-57
2023/12/21 00:09:18;;;;;;;12.20;8.18;;;;;;;5.10;100.00;97484.69;5054082;28;20200;-57
2023/12/21 00:11:44;;;;;;;11.50;8.02;;;;;;;5.10;100.00;97489.81;5031544;28;20325;-57
2023/12/21 00:14:10;;;;;;;12.27;7.25;;;;;;;5.37;100.00;97521.44;5031890;28;20195;-57
2023/12/21 00:16:35;;;;;;;4.15;3.28;;;;;;;5.41;99.98;97499.81;5031515;28;20583;-57
2023/12/21 00:19:01;;;;;;;3.10;2.53;;;;;;;5.17;96.76;97455.19;5031715;28;20182;-58
2023/12/21 00:21:26;;;;;;;2.20;2.00;;;;;;;5.08;95.20;97429.31;5031547;28;20911;-58
2023/12/21 00:23:51;;;;;;;3.42;2.78;;;;;;;5.07;95.98;97428.47;5031324;28;20266;-57
2023/12/21 00:26:17;;;;;;;2.80;2.50;;;;;;;5.05;97.17;97414.94;5031540;28;20305;-57
2023/12/21 00:28:43;;;;;;;3.95;2.90;;;;;;;5.35;97.72;97472.00;5031447;28;20252;-57
2023/12/21 00:31:09;;;;;;;2.63;2.22;;;;;;;5.49;98.70;97477.06;5031307;28;20363;-57
2023/12/21 00:33:34;;;;;;;3.65;2.70;;;;;;;5.55;99.05;97492.06;5031295;28;20641;-57
2023/12/21 00:36:00;;;;;;;3.03;2.08;;;;;;;5.24;99.14;97427.44;5031258;28;20649;-57
2023/12/21 00:38:25;;;;;;;4.13;3.58;;;;;;;5.54;99.62;97490.44;5031050;28;20214;-57
2023/12/21 00:40:52;;;;;;;3.13;2.53;;;;;;;5.52;99.98;97476.06;5031446;28;20261;-57
2023/12/21 00:43:18;;;;;;;3.28;2.65;;;;;;;5.39;100.00;97468.31;5047438;28;20271;-57
2023/12/21 00:45:43;;;;;;;3.05;2.85;;;;;;;5.52;100.00;97487.16;5053351;28;20239;-57
2023/12/21 00:48:09;;;;;;;4.50;3.35;;;;;;;5.07;100.00;97409.72;5053339;28;20178;-57
2023/12/21 00:50:34;;;;;;;3.28;2.97;;;;;;;4.98;100.00;97400.03;5053302;28;20598;-57
2023/12/21 00:53:00;;;;;;;10.05;7.00;;;;;;;5.06;100.00;97406.31;5053276;28;20264;-58
2023/12/21 00:55:25;;;;;;;17.63;10.07;;;;;;;5.57;100.00;97510.78;5053504;28;20625;-57
2023/12/21 00:57:51;;;;;;;7.72;4.88;;;;;;;5.49;100.00;97501.91;5052361;28;20383;-57
2023/12/21 01:00:17;;;;;;;8.52;4.65;;;;;;;5.05;99.71;97432.06;5050605;28;20231;-57
2023/12/21 01:02:42;;;;;;;5.15;3.50;;;;;;;5.23;100.00;97477.06;5050880;28;20634;-57
2023/12/21 01:05:07;;;;;;;6.00;3.97;;;;;;;5.29;100.00;97492.91;5010715;28;20316;-57
2023/12/21 01:07:33;;;;;;;6.95;4.75;;;;;;;4.99;100.00;97456.34;5010901;28;20214;-57
2023/12/21 01:09:58;;;;;;;6.82;4.90;;;;;;;4.85;100.00;97425.59;5010901;28;20740;-57
2023/12/21 01:12:24;;;;;;;7.55;6.05;;;;;;;5.43;100.00;97515.94;5010786;28;20270;-58
2023/12/21 01:14:50;;;;;;;10.50;7.50;;;;;;;5.15;100.00;97462.16;5010714;28;20233;-57
2023/12/21 01:17:15;;;;;;;10.88;7.18;;;;;;;5.15;100.00;97466.47;5010747;28;20234;-57
2023/12/21 01:19:41;;;;;;;9.35;6.00;;;;;;;4.84;100.00;97410.34;5010704;28;20183;-57
2023/12/21 01:22:06;;;;;;;7.72;5.78;;;;;;;5.35;100.00;97497.63;4971497;28;20691;-57
2023/12/21 01:24:32;;;;;;;7.15;4.93;;;;;;;4.93;100.00;97423.41;4971425;28;20553;-57
2023/12/21 01:26:57;;;;;;;9.05;5.25;;;;;;;4.92;100.00;97424.31;4952011;28;20193;-57
2023/12/21 01:29:22;;;;;;;6.82;5.00;;;;;;;4.70;100.00;97393.25;4952183;28;20201;-57
2023/12/21 01:31:48;;;;;;;6.28;3.65;;;;;;;4.75;100.00;97409.16;4965973;28;20663;-57
2023/12/21 01:34:13;;;;;;;6.90;4.55;;;;;;;5.21;100.00;97486.59;4971499;28;20552;-58
2023/12/21 01:36:39;;;;;;;4.57;3.20;;;;;;;4.47;100.00;97359.69;4985243;28;20283;-57
2023/12/21 01:39:06;;;;;;;3.92;3.55;;;;;;;4.92;100.00;97432.00;4990783;28;20183;-57
2023/12/21 01:41:32;;;;;;;5.95;4.93;;;;;;;4.99;100.00;97443.53;4990495;28;20338;-57
2023/12/21 01:43:58;;;;;;;4.20;3.80;;;;;;;5.21;100.00;97486.59;4990559;28;20234;-57
2023/12/21 01:46:24;;;;;;;5.50;4.00;;;;;;;4.71;100.00;97409.41;4990286;28;20284;-57
2023/12/21 01:48:50;;;;;;;3.92;2.90;;;;;;;4.96;100.00;97441.13;4990823;28;20187;-57
2023/12/21 01:51:17;;;;;;;3.30;2.40;;;;;;;5.36;100.00;97480.53;4990556;28;20298;-57
2023/12/21 01:53:44;;;;;;;2.30;2.10;;;;;;;5.38;100.00;97469.25;5020117;28;20593;-57
2023/12/21 01:56:10;;;;;;;1.98;1.80;;;;;;;4.78;99.50;97362.84;5029793;28;20210;-58
2023/12/21 01:58:36;;;;;;;1.75;1.65;;;;;;;4.81;99.54;97375.47;5060340;28;20217;-57
2023/12/21 02:01:05;;;;;;;2.33;2.20;;;;;;;5.31;99.83;97467.16;5069611;28;20177;-58
2023/12/21 02:03:30;;;;;;;1.83;1.73;;;;;;;4.77;100.00;97356.06;5069532;28;20181;-58
2023/12/21 02:05:56;;;;;;;2.25;1.90;;;;;;;5.11;99.99;97414.56;5069355;28;20231;-57
2023/12/21 02:08:21;;;;;;;2.00;1.73;;;;;;;5.08;100.00;97403.69;5069379;28;20181;-57
2023/12/21 02:10:47;;;;;;;1.48;1.38;;;;;;;4.84;100.00;97354.75;5069497;28;20209;-58
2023/12/21 02:13:13;;;;;;;1.15;1.15;;;;;;;5.52;97.65;97446.09;5069408;28;20662;-58
2023/12/21 02:15:38;;;;;;;1.15;1.00;;;;;;;5.41;91.52;97391.25;5069375;28;20203;-58
2023/12/21 02:18:07;;;;;;;1.10;1.00;;;;;;;5.41;88.80;97345.09;5069254;28;20216;-58
2023/12/21 02:20:33;;;;;;;1.40;1.30;;;;;;;5.65;87.46;97352.03;5069338;28;20192;-57
2023/12/21 02:23:03;;;;;;;1.63;1.52;;;;;;;5.80;86.38;97360.50;5066387;28;20277;-58
2023/12/21 02:25:30;;;;;;;1.50;1.40;;;;;;;6.36;85.08;97437.94;5051776;28;20224;-58
2023/12/21 02:27:55;;;;;;;1.20;1.15;;;;;;;6.30;84.02;97443.50;5051931;28;20200;-58
2023/12/21 02:30:20;;;;;;;0.98;0.98;;;;;;;6.20;84.84;97429.63;5029077;28;20182;-57
2023/12/21 02:32:46;;;;;;;1.00;1.00;;;;;;;6.22;84.45;97447.50;5029223;28;20195;-57
2023/12/21 02:35:11;;;;;;;3.17;2.05;;;;;;;5.93;84.54;97389.53;5029498;28;20186;-58
2023/12/21 02:37:36;;;;;;;2.30;1.65;;;;;;;5.80;86.46;97375.88;5029116;28;20210;-57
2023/12/21 02:40:02;;;;;;;1.20;1.20;;;;;;;6.08;88.02;97419.34;5029086;28;20186;-57
2023/12/21 02:42:27;;;;;;;1.58;1.33;;;;;;;5.70;89.39;97367.94;5029139;28;20256;-58
2023/12/21 02:44:53;;;;;;;1.45;1.40;;;;;;;5.78;89.36;97378.50;5029033;28;20224;-58
2023/12/21 02:47:18;;;;;;;1.67;1.52;;;;;;;5.99;90.16;97427.66;5028986;28;20261;-58
2023/12/21 02:49:44;;;;;;;1.80;1.70;;;;;;;5.90;91.08;97429.06;5028848;28;20256;-57
2023/12/21 02:52:09;;;;;;;2.13;2.03;;;;;;;5.75;91.54;97406.13;5028869;28;20328;-57
2023/12/21 02:54:35;;;;;;;2.22;2.03;;;;;;;5.56;92.75;97378.28;5028960;28;20478;-58
2023/12/21 02:57:00;;;;;;;2.33;2.05;;;;;;;5.81;93.77;97421.16;5028847;28;20218;-58
2023/12/21 02:59:26;;;;;;;2.58;1.40;;;;;;;5.34;90.68;97331.88;5029216;28;20181;-58
2023/12/21 03:01:51;;;;;;;1.70;1.40;;;;;;;5.31;89.91;97329.50;5043013;28;20193;-58
2023/12/21 03:04:16;;;;;;;1.90;1.80;;;;;;;5.86;90.98;97419.94;5048626;28;20221;-58
2023/12/21 03:06:43;;;;;;;3.85;2.03;;;;;;;5.69;91.80;97404.78;5048734;28;20275;-58
2023/12/21 03:09:09;;;;;;;2.60;2.40;;;;;;;5.72;92.87;97409.72;5048636;28;20178;-57
2023/12/21 03:11:35;;;;;;;2.83;2.40;;;;;;;5.19;93.42;97324.34;5048629;28;20218;-58
2023/12/21 03:14:00;;;;;;;2.60;2.35;;;;;;;5.51;93.91;97377.78;5048402;28;20318;-58
2023/12/21 03:16:26;;;;;;;3.97;2.67;;;;;;;5.25;94.35;97335.00;5048549;28;20670;-58
2023/12/21 03:18:51;;;;;;;2.63;2.42;;;;;;;5.73;95.16;97402.84;5048531;28;20202;-58
2023/12/21 03:21:16;;;;;;;2.95;2.45;;;;;;;5.36;95.81;97347.97;5051942;28;20182;-58
2023/12/21 03:23:42;;;;;;;2.20;2.00;;;;;;;5.15;96.10;97323.72;5052522;28;20202;-58
2023/12/21 03:26:08;;;;;;;3.05;2.40;;;;;;;5.21;96.22;97325.91;5052447;28;20186;-58
2023/12/21 03:28:34;;;;;;;2.83;2.63;;;;;;;5.57;96.66;97391.94;5052472;28;20680;-58
2023/12/21 03:31:00;;;;;;;2.58;2.30;;;;;;;5.42;96.82;97362.16;5052401;28;20177;-58
2023/12/21 03:33:25;;;;;;;7.15;2.67;;;;;;;5.59;96.94;97396.03;5039074;28;20696;-58
2023/12/21 03:35:51;;;;;;;5.72;3.13;;;;;;;5.31;96.94;97344.06;5034898;28;20210;-58
2023/12/21 03:38:17;;;;;;;2.65;2.45;;;;;;;5.09;96.05;97297.66;5034724;28;20559;-58
2023/12/21 03:40:42;;;;;;;2.60;2.40;;;;;;;5.30;95.55;97348.38;5034812;28;20174;-58
2023/12/21 03:43:08;;;;;;;2.45;2.25;;;;;;;5.15;95.83;97315.19;5034617;28;20206;-57
2023/12/21 03:45:39;;;;;;;2.28;2.17;;;;;;;5.07;95.08;97307.19;5034671;28;20171;-58
2023/12/21 03:48:09;;;;;;;1.67;1.60;;;;;;;4.97;91.81;97311.25;5034597;28;20240;-57
2023/12/21 03:50:35;;;;;;;1.50;1.40;;;;;;;5.12;91.41;97353.88;5034585;28;20249;-58
2023/12/21 03:53:00;;;;;;;1.50;1.40;;;;;;;4.91;91.86;97309.88;5034489;28;20274;-57
2023/12/21 03:55:26;;;;;;;1.88;1.63;;;;;;;5.47;91.59;97401.97;5034407;28;20182;-57
2023/12/21 03:57:51;;;;;;;1.00;1.00;;;;;;;4.83;89.03;97291.63;5034365;28;20680;-57
2023/12/21 04:00:18;;;;;;;1.73;1.20;;;;;;;5.45;87.81;97392.72;5034422;28;20174;-58
2023/12/21 04:02:45;;;;;;;1.15;1.15;;;;;;;5.18;88.14;97350.91;5034268;28;20183;-57
2023/12/21 04:05:11;;;;;;;1.10;1.10;;;;;;;5.49;88.24;97391.63;5034275;28;20178;-58
2023/12/21 04:07:36;;;;;;;1.33;1.27;;;;;;;4.88;89.45;97289.59;5034225;28;20201;-58
2023/12/21 04:10:02;;;;;;;1.42;1.40;;;;;;;5.01;90.28;97321.22;5033919;28;20257;-58
2023/12/21 04:12:27;;;;;;;1.55;1.20;;;;;;;5.11;90.56;97347.06;5034174;28;20179;-58
2023/12/21 04:14:52;;;;;;;1.85;1.70;;;;;;;5.37;90.31;97387.28;5034146;28;20540;-58
2023/12/21 04:17:18;;;;;;;1.70;1.58;;;;;;;5.23;90.91;97354.81;5033995;28;20247;-57
2023/12/21 04:19:43;;;;;;;2.17;1.67;;;;;;;5.12;91.84;97348.75;5034087;28;20637;-58
2023/12/21 04:22:08;;;;;;;1.60;1.50;;;;;;;4.85;92.61;97307.72;5033941;28;20186;-58
2023/12/21 04:24:34;;;;;;;1.40;1.27;;;;;;;5.29;93.19;97379.22;5033911;28;20186;-58
2023/12/21 04:26:59;;;;;;;1.70;1.52;;;;;;;5.12;93.84;97354.66;5033955;28;20614;-58
2023/12/21 04:29:24;;;;;;;1.95;1.50;;;;;;;5.42;94.67;97404.00;5033509;28;20170;-57
2023/12/21 04:31:50;;;;;;;1.80;1.70;;;;;;;5.52;92.48;97399.94;5032556;28;20179;-58
2023/12/21 04:34:16;;;;;;;1.60;1.50;;;;;;;4.89;90.75;97293.81;5033832;28;20167;-57
2023/12/21 04:36:41;;;;;;;2.60;1.52;;;;;;;5.46;89.26;97382.38;5033611;28;20265;-58
2023/12/21 04:39:06;;;;;;;1.70;1.60;;;;;;;5.18;90.23;97346.59;5033710;28;20273;-57
2023/12/21 04:41:32;;;;;;;1.88;1.77;;;;;;;4.90;90.77;97295.44;5033920;28;20186;-57
2023/12/21 04:43:57;;;;;;;3.63;1.92;;;;;;;4.99;90.63;97307.69;5033614;28;20206;-58
2023/12/21 04:46:23;;;;;;;1.88;1.77;;;;;;;4.99;90.90;97312.81;5033556;28;20186;-58
2023/12/21 04:48:49;;;;;;;2.00;1.90;;;;;;;4.95;91.92;97306.22;5033530;28;20668;-58
2023/12/21 04:51:17;;;;;;;2.00;1.88;;;;;;;5.06;92.72;97315.78;5033493;28;20201;-57
2023/12/21 04:53:43;;;;;;;2.30;2.10;;;;;;;5.56;91.78;97401.38;5033431;28;20182;-57
2023/12/21 04:56:09;;;;;;;2.28;2.08;;;;;;;5.18;91.28;97349.16;5033079;28;20186;-58
2023/12/21 04:58:35;;;;;;;2.25;2.15;;;;;;;5.49;91.55;97394.19;5033233;28;20209;-58
2023/12/21 05:01:01;;;;;;;2.00;1.70;;;;;;;5.25;89.31;97359.84;5033269;28;20183;-58
2023/12/21 05:03:26;;;;;;;1.70;1.60;;;;;;;5.58;90.14;97409.78;5033222;28;20182;-58
2023/12/21 05:05:51;;;;;;;1.80;1.70;;;;;;;5.55;88.17;97415.09;5033251;28;20181;-58
2023/12/21 05:08:17;;;;;;;1.73;1.33;;;;;;;5.50;87.25;97406.91;5033193;28;20657;-57
2023/12/21 05:10:42;;;;;;;2.50;1.58;;;;;;;5.60;86.22;97419.97;5033194;28;20278;-57
2023/12/21 05:13:08;;;;;;;1.88;1.27;;;;;;;5.54;86.74;97417.78;5033181;28;20175;-58
2023/12/21 05:15:33;;;;;;;1.30;1.30;;;;;;;5.55;85.98;97424.56;5033130;28;20178;-58
2023/12/21 05:17:59;;;;;;;1.58;1.48;;;;;;;5.53;86.52;97434.13;5032997;28;20199;-57
2023/12/21 05:20:24;;;;;;;1.83;1.63;;;;;;;5.37;86.47;97411.16;5032934;28;20182;-58
2023/12/21 05:22:50;;;;;;;4.25;1.58;;;;;;;5.23;86.07;97393.28;5033206;28;20554;-57
2023/12/21 05:25:19;;;;;;;2.60;2.40;;;;;;;4.86;86.73;97334.19;5033032;28;20692;-57
2023/12/21 05:27:44;;;;;;;2.00;1.83;;;;;;;5.45;87.74;97447.41;5032820;28;20188;-57
2023/12/21 05:30:10;;;;;;;2.05;1.95;;;;;;;5.45;89.59;97436.31;5032880;28;20261;-57
2023/12/21 05:32:35;;;;;;;4.72;2.70;;;;;;;5.43;90.78;97436.41;5032742;28;20269;-58
2023/12/21 05:35:02;;;;;;;2.60;2.40;;;;;;;5.44;90.52;97422.69;5032452;28;20568;-57
2023/12/21 05:37:27;;;;;;;6.95;3.03;;;;;;;5.03;90.38;97360.41;5032591;28;20292;-58
2023/12/21 05:39:53;;;;;;;2.97;1.80;;;;;;;5.24;88.36;97404.38;5032374;28;20190;-57
2023/12/21 05:42:18;;;;;;;2.35;2.15;;;;;;;5.42;87.82;97439.91;5032441;28;20178;-57
2023/12/21 05:44:44;;;;;;;2.50;1.88;;;;;;;5.39;88.56;97437.56;5032460;28;20178;-58
2023/12/21 05:47:09;;;;;;;3.83;3.40;;;;;;;5.10;89.74;97394.13;5032471;28;20171;-58
2023/12/21 05:49:35;;;;;;;1.90;1.75;;;;;;;5.34;89.73;97449.84;5032131;28;20218;-57
2023/12/21 05:52:00;;;;;;;2.22;2.03;;;;;;;5.30;90.50;97440.69;5032573;28;20210;-57
2023/12/21 05:54:27;;;;;;;2.42;2.22;;;;;;;5.24;91.54;97423.13;5032093;28;20661;-57
2023/12/21 05:56:52;;;;;;;1.95;1.85;;;;;;;4.93;91.61;97405.47;5029648;28;20719;-58
2023/12/21 05:59:18;;;;;;;22.80;3.92;;;;;;;4.92;92.65;97397.84;5030090;28;20194;-57
2023/12/21 06:01:45;;;;;;;4.82;2.58;;;;;;;5.08;93.55;97450.63;5030011;28;20606;-57
2023/12/21 06:04:11;;;;;;;3.03;2.58;;;;;;;5.16;94.29;97450.16;5030000;28;20240;-57
2023/12/21 06:06:36;;;;;;;2.97;2.30;;;;;;;4.60;94.40;97352.91;5030005;28;20194;-57
2023/12/21 06:09:05;;;;;;;4.68;2.25;;;;;;;5.10;95.29;97453.94;5029989;28;20265;-57
2023/12/21 06:11:30;;;;;;;3.85;2.45;;;;;;;5.11;95.85;97460.72;5029799;28;20252;-57
2023/12/21 06:13:55;;;;;;;3.10;2.80;;;;;;;4.58;96.46;97352.16;5029824;28;20261;-57
2023/12/21 06:16:21;;;;;;;3.42;2.60;;;;;;;4.65;96.13;97361.94;5030006;28;20194;-57
2023/12/21 06:18:48;;;;;;;2.85;2.65;;;;;;;5.07;96.48;97432.81;5029713;28;20206;-57
2023/12/21 06:21:13;;;;;;;2.92;2.67;;;;;;;4.91;96.52;97397.03;5029705;28;20182;-57
2023/12/21 06:23:39;;;;;;;2.50;2.30;;;;;;;4.96;93.51;97409.56;5029684;28;20343;-57
2023/12/21 06:26:04;;;;;;;2.30;2.08;;;;;;;5.21;92.88;97446.41;5029568;28;20198;-57
2023/12/21 06:28:30;;;;;;;2.05;1.90;;;;;;;4.75;92.33;97365.59;5031479;28;20195;-57
2023/12/21 06:30:55;;;;;;;2.42;2.30;;;;;;;5.12;93.41;97457.22;5032080;28;20551;-57
2023/12/21 06:33:22;;;;;;;1.80;1.70;;;;;;;5.09;94.19;97460.00;5032001;28;20175;-57
2023/12/21 06:35:47;;;;;;;2.80;2.00;;;;;;;4.98;93.93;97426.50;5032001;28;20170;-57
2023/12/21 06:38:12;;;;;;;2.10;1.90;;;;;;;4.90;92.46;97405.63;5031608;28;20213;-57
2023/12/21 06:40:38;;;;;;;1.67;1.58;;;;;;;4.94;91.54;97437.00;5031849;28;20186;-57
2023/12/21 06:43:03;;;;;;;1.50;1.40;;;;;;;5.30;88.98;97465.53;5031431;28;20175;-57
2023/12/21 06:45:29;;;;;;;1.65;1.55;;;;;;;4.97;88.58;97422.28;5042323;28;20256;-57
2023/12/21 06:47:54;;;;;;;1.52;1.42;;;;;;;5.00;88.23;97414.41;5051462;28;20189;-57
2023/12/21 06:50:20;;;;;;;1.92;1.77;;;;;;;5.00;88.81;97393.91;5051629;28;20695;-57
2023/12/21 06:52:46;;;;;;;1.95;1.70;;;;;;;5.35;88.55;97461.75;5051590;28;20178;-57
2023/12/21 06:55:12;;;;;;;2.17;2.08;;;;;;;4.94;88.33;97378.91;5050856;28;20185;-57
2023/12/21 06:57:37;;;;;;;2.78;2.53;;;;;;;5.24;89.04;97441.06;5051299;28;20207;-57
2023/12/21 07:00:06;;;;;;;2.17;2.00;;;;;;;4.96;88.46;97399.31;5051855;28;20637;-57
2023/12/21 07:02:32;;;;;;;1.90;1.80;;;;;;;5.27;88.30;97434.94;5045173;28;20327;-57
2023/12/21 07:04:57;;;;;;;1.67;1.58;;;;;;;5.38;88.81;97443.59;5034520;28;20179;-57
2023/12/21 07:07:23;;;;;;;2.00;1.83;;;;;;;5.41;88.24;97440.00;5031405;28;20178;-57
2023/12/21 07:09:48;;;;;;;2.80;2.60;;;;;;;5.71;87.81;97481.69;5031468;28;20653;-57
2023/12/21 07:12:14;;;;;;;3.78;2.60;;;;;;;5.66;88.54;97479.38;5031372;28;20552;-57
2023/12/21 07:14:40;;;;;;;2.05;1.95;;;;;;;5.85;88.66;97499.59;5048593;28;20190;-57
2023/12/21 07:17:06;;;;;;;1.80;1.70;;;;;;;5.61;86.88;97437.84;5048626;28;20356;-57
2023/12/21 07:19:31;;;;;;;1.58;1.48;;;;;;;5.64;87.33;97439.34;5028491;28;20197;-57
2023/12/21 07:21:57;;;;;;;1.83;1.73;;;;;;;5.78;87.71;97458.06;5008870;28;20191;-57
2023/12/21 07:24:22;;;;;;;2.47;2.10;;;;;;;6.14;86.85;97507.09;5008819;28;20728;-57
2023/12/21 07:26:48;;;;;;;3.00;2.70;;;;;;;6.16;86.20;97489.00;5009130;28;20225;-57
2023/12/21 07:29:13;;;;;;;5.63;3.90;;;;;;;5.86;85.96;97419.94;5009382;28;20280;-57
2023/12/21 07:31:38;;;;;;;3.28;2.63;;;;;;;6.21;86.23;97461.25;5008865;28;20195;-57
2023/12/21 07:34:05;;;;;;;2.45;2.28;;;;;;;6.49;85.71;97491.91;4969766;28;20276;-57
2023/12/21 07:36:30;;;;;;;3.15;2.70;;;;;;;6.30;85.74;97461.47;4970003;28;20216;-57
2023/12/21 07:38:56;;;;;;;3.17;2.70;;;;;;;6.52;85.03;97487.38;4931284;29;20780;-57
2023/12/21 07:41:21;;;;;;;3.00;2.20;;;;;;;6.43;85.56;97467.47;4931418;29;20190;-57
2023/12/21 07:43:46;;;;;;;2.13;1.92;;;;;;;6.72;83.89;97484.31;4912398;29;20189;-58
2023/12/21 07:46:13;;;;;;;1.90;1.77;;;;;;;6.61;82.71;97450.81;4912503;29;20591;-58
2023/12/21 07:48:39;;;;;;;2.45;2.25;;;;;;;6.55;82.18;97438.38;4903958;29;20225;-58
2023/12/21 07:51:05;;;;;;;2.40;2.20;;;;;;;6.91;81.82;97501.84;4901467;29;20741;-58
2023/12/21 07:53:30;;;;;;;2.40;2.20;;;;;;;6.82;81.19;97482.72;4950861;28;20271;-57
2023/12/21 07:55:56;;;;;;;2.30;1.80;;;;;;;6.58;81.90;97430.44;4969974;28;20317;-58
2023/12/21 07:58:21;;;;;;;4.47;3.20;;;;;;;7.05;80.87;97494.84;4969709;28;20212;-58
2023/12/21 08:00:47;;;;;;;4.57;2.80;;;;;;;7.07;81.39;97500.72;4969804;28;20227;-58
2023/12/21 08:03:12;;;;;;;5.35;3.60;;;;;;;7.17;82.04;97508.63;4969829;28;20272;-58
2023/12/21 08:05:38;;;;;;;6.05;4.13;;;;;;;7.20;82.66;97496.34;4998808;28;20207;-58
2023/12/21 08:08:04;;;;;;;10.10;5.50;;;;;;;6.85;81.99;97428.56;5012590;28;20194;-58
2023/12/21 08:10:30;;;;;;;8.23;6.15;;;;;;;7.46;81.67;97510.78;5012209;28;20183;-58
2023/12/21 08:12:55;;;;;;;14.02;7.25;;;;;;;7.14;81.72;97445.34;5012224;28;20179;-58
2023/12/21 08:15:21;;;;;;;9.55;6.45;;;;;;;7.38;81.66;97479.63;5045382;28;20198;-58
2023/12/21 08:17:51;;;;;;;8.43;5.50;;;;;;;7.71;81.44;97515.03;5053906;28;20223;-58
2023/12/21 08:20:16;;;;;;;8.50;5.60;;;;;;;7.45;81.32;97460.25;5054256;28;20208;-57
2023/12/21 08:22:42;;;;;;;7.25;5.45;;;;;;;7.69;81.05;97497.09;5053829;28;20170;-57
2023/12/21 08:25:07;;;;;;;6.32;5.32;;;;;;;7.46;80.67;97425.06;5054050;28;20227;-57
2023/12/21 08:27:33;;;;;;;9.80;6.35;;;;;;;7.18;80.57;97368.78;5054056;28;20257;-57
2023/12/21 08:29:59;;;;;;;11.85;7.70;;;;;;;7.68;80.28;97430.31;5053988;28;20675;-57
2023/12/21 08:32:25;;;;;;;11.77;7.88;;;;;;;7.94;79.75;97462.69;5053786;28;20210;-58
2023/12/21 08:34:51;;;;;;;12.15;6.18;;;;;;;8.37;78.24;97513.56;5053884;28;20647;-57
2023/12/21 08:37:17;;;;;;;6.25;4.70;;;;;;;8.10;76.80;97452.91;5031237;28;20210;-57
2023/12/21 08:39:42;;;;;;;12.13;6.28;;;;;;;8.07;76.36;97432.53;5031389;28;20273;-57
2023/12/21 08:42:08;;;;;;;12.75;5.50;;;;;;;8.66;77.07;97524.28;5031329;28;20190;-57
2023/12/21 08:44:37;;;;;;;7.90;5.13;;;;;;;8.27;77.60;97440.44;5031235;28;20193;-57
2023/12/21 08:47:04;;;;;;;8.73;5.43;;;;;;;8.30;77.56;97429.94;5031283;28;20178;-57
2023/12/21 08:49:30;;;;;;;11.13;5.70;;;;;;;8.55;77.08;97449.50;5031112;28;20194;-57
2023/12/21 08:51:55;;;;;;;10.88;6.05;;;;;;;8.65;76.80;97447.88;5031211;28;20185;-57
2023/12/21 08:54:21;;;;;;;11.43;7.70;;;;;;;8.69;76.20;97437.19;5031070;28;20186;-57
2023/12/21 08:56:46;;;;;;;9.60;7.60;;;;;;;9.09;76.36;97482.22;5031078;28;20181;-57
2023/12/21 08:59:12;;;;;;;13.30;8.10;;;;;;;8.69;76.28;97401.09;5031364;28;20696;-57
2023/12/21 09:01:38;;;;;;;9.90;7.90;;;;;;;8.77;76.30;97391.03;5031039;28;20186;-57
2023/12/21 09:04:04;;;;;;;11.00;8.07;;;;;;;9.27;76.35;97457.56;5030912;28;20174;-57
2023/12/21 09:06:31;;;;;;;15.38;9.90;;;;;;;9.36;75.19;97449.09;5030894;28;20187;-57
2023/12/21 09:08:57;;;;;;;13.00;8.48;;;;;;;9.15;74.76;97408.69;5030730;28;20720;-57
2023/12/21 09:11:23;;;;;;;11.98;9.38;;;;;;;9.19;74.62;97397.16;5029922;28;20205;-57
2023/12/21 09:13:49;;;;;;;13.30;9.25;;;;;;;9.68;75.14;97470.59;5036158;28;20199;-57
2023/12/21 09:16:17;;;;;;;12.95;8.63;;;;;;;9.74;75.48;97475.28;5070564;28;20660;-57
2023/12/21 09:18:45;;;;;;;12.23;7.80;;;;;;;9.46;76.02;97416.47;5069775;28;20204;-57
2023/12/21 09:21:11;;;;;;;12.20;6.90;;;;;;;9.57;75.48;97427.56;5070505;28;20223;-57
2023/12/21 09:23:36;;;;;;;16.48;8.82;;;;;;;9.64;76.56;97433.88;5070034;28;20196;-57
2023/12/21 09:26:02;;;;;;;12.27;7.97;;;;;;;9.84;76.50;97450.34;5069362;28;20214;-57
2023/12/21 09:28:27;;;;;;;10.55;8.07;;;;;;;9.86;77.14;97430.41;5069967;28;20189;-58
2023/12/21 09:30:55;;;;;;;9.88;7.90;;;;;;;9.19;76.33;97301.69;5068480;28;20185;-57
2023/12/21 09:33:20;;;;;;;8.75;7.18;;;;;;;9.58;76.57;97359.47;5070343;28;20235;-57
2023/12/21 09:35:46;;;;;;;9.63;7.05;;;;;;;9.57;76.48;97344.13;5070360;28;20664;-58
2023/12/21 09:38:11;;;;;;;10.07;6.75;;;;;;;10.14;76.68;97416.88;5070216;28;20219;-57
2023/12/21 09:40:36;;;;;;;9.05;7.05;;;;;;;9.84;76.70;97362.50;5070607;28;20562;-58
2023/12/21 09:43:05;;;;;;;12.32;7.38;;;;;;;10.30;75.95;97427.59;5056605;28;20734;-57
2023/12/21 09:45:31;;;;;;;8.77;6.85;;;;;;;10.27;76.14;97407.19;5052665;28;20664;-57
2023/12/21 09:47:58;;;;;;;12.25;7.43;;;;;;;9.88;76.45;97353.56;5052564;28;20174;-57
2023/12/21 09:50:24;;;;;;;8.90;6.93;;;;;;;9.95;75.82;97354.69;5052512;28;20181;-57
2023/12/21 09:52:50;;;;;;;9.18;6.53;;;;;;;10.35;75.78;97428.03;5052568;28;20277;-57
2023/12/21 09:55:19;;;;;;;10.85;7.22;;;;;;;10.44;75.32;97425.50;5052455;28;20671;-57
2023/12/21 09:57:46;;;;;;;16.23;8.23;;;;;;;10.43;75.56;97413.50;5052048;28;20578;-58
2023/12/21 10:00:12;;;;;;;10.73;7.03;;;;;;;10.22;74.39;97362.78;5052368;28;20189;-57
2023/12/21 10:02:37;;;;;;;9.82;6.55;;;;;;;10.01;74.20;97330.94;5052169;28;20174;-57
2023/12/21 10:05:06;;;;;;;12.27;7.53;;;;;;;10.55;73.96;97401.31;5052223;28;20188;-58
2023/12/21 10:07:33;;;;;;;11.80;7.25;;;;;;;10.56;73.88;97403.78;5049532;28;20672;-57
2023/12/21 10:09:59;;;;;;;14.45;8.10;;;;;;;10.28;73.90;97351.94;5049690;28;20336;-58
2023/12/21 10:12:24;;;;;;;13.95;8.18;;;;;;;10.59;73.80;97398.34;5049704;28;20589;-58
2023/12/21 10:14:59;;;;;;;13.80;8.77;;;;;;;10.30;73.86;97335.34;5049681;28;20698;-58
2023/12/21 10:17:25;;;;;;;11.30;7.68;;;;;;;10.69;73.88;97388.84;5049426;28;20248;-58
2023/12/21 10:19:51;;;;;;;11.85;8.10;;;;;;;10.63;73.51;97362.69;5049601;28;20215;-58
2023/12/21 10:22:17;;;;;;;8.75;6.30;;;;;;;10.38;73.82;97320.00;5049547;28;20656;-58
2023/12/21 10:24:43;;;;;;;9.98;7.32;;;;;;;10.73;73.25;97376.50;5049428;28;20229;-58
2023/12/21 10:27:13;;;;;;;10.48;6.93;;;;;;;10.37;73.33;97299.44;5049396;28;20777;-58
2023/12/21 10:29:40;;;;;;;9.02;7.05;;;;;;;10.55;72.62;97328.91;5048492;28;20239;-57
2023/12/21 10:32:06;;;;;;;11.57;6.88;;;;;;;10.72;72.57;97348.97;5049361;28;20690;-57
2023/12/21 10:34:31;;;;;;;11.38;7.93;;;;;;;10.71;73.27;97348.16;5049405;28;20214;-57
2023/12/21 10:37:00;;;;;;;8.95;7.63;;;;;;;10.64;73.41;97316.03;5049207;28;20717;-58
2023/12/21 10:39:27;;;;;;;11.65;6.03;;;;;;;10.63;71.96;97303.22;5051308;28;20276;-57
2023/12/21 10:41:53;;;;;;;6.97;6.00;;;;;;;10.91;72.67;97343.88;5051615;28;20219;-57
2023/12/21 10:44:20;;;;;;;8.32;5.95;;;;;;;10.99;71.57;97359.53;5051551;28;20227;-58
2023/12/21 10:46:46;;;;;;;8.13;6.80;;;;;;;10.94;72.63;97343.59;5032776;28;20220;-60
2023/12/21 10:49:13;;;;;;;7.25;6.32;;;;;;;11.14;72.78;97342.69;5051570;28;20181;-57
2023/12/21 10:51:40;;;;;;;12.65;6.95;;;;;;;10.63;72.92;97259.25;5051446;28;20173;-57
2023/12/21 10:54:08;;;;;;;8.05;6.30;;;;;;;11.24;71.85;97341.72;5051894;28;20178;-58
2023/12/21 10:56:37;;;;;;;8.57;5.95;;;;;;;11.08;72.04;97304.38;5051505;28;20239;-57
2023/12/21 10:59:03;;;;;;;7.22;5.75;;;;;;;10.85;71.58;97264.97;5051395;28;20209;-57
2023/12/21 11:01:29;;;;;;;15.07;6.55;;;;;;;10.93;71.76;97251.38;5051493;28;20558;-58
2023/12/21 11:03:57;;;;;;;9.18;6.68;;;;;;;10.99;72.48;97256.00;5051457;28;20202;-57
2023/12/21 11:06:23;;;;;;;7.13;6.40;;;;;;;11.43;72.03;97325.38;5028937;28;20269;-57
2023/12/21 11:08:49;;;;;;;10.00;7.75;;;;;;;11.28;72.28;97293.91;5029104;28;20770;-57
2023/12/21 11:11:22;;;;;;;7.20;5.88;;;;;;;11.58;71.12;97331.78;5029101;28;20190;-56
2023/12/21 11:13:55;;;;;;;8.77;5.88;;;;;;;11.24;68.84;97260.63;5029195;28;20722;-58
2023/12/21 11:16:35;;;;;;;10.27;5.60;;;;;;;11.45;69.18;97276.84;5028938;28;20187;-57
2023/12/21 11:19:04;;;;;;;6.45;5.65;;;;;;;11.33;68.52;97246.88;5029078;28;20206;-58
2023/12/21 11:21:32;;;;;;;7.63;5.10;;;;;;;11.80;67.70;97323.75;4995977;28;20218;-57
2023/12/21 11:23:58;;;;;;;6.07;4.65;;;;;;;11.80;65.62;97308.19;5028754;28;20327;-57
2023/12/21 11:26:27;;;;;;;4.55;3.88;;;;;;;11.85;62.20;97311.19;5029034;28;20695;-58
2023/12/21 11:29:06;;;;;;;4.13;3.00;;;;;;;11.77;52.87;97285.13;5028928;28;20688;-58
2023/12/21 11:31:39;;;;;;;3.65;2.53;;;;;;;11.78;52.42;97273.84;5028731;28;20190;-58
2023/12/21 11:34:12;;;;;;;3.83;2.63;;;;;;;11.81;53.71;97270.97;5028842;28;20221;-58